sensor_id;sensor_type;location;lat;lon;timestamp;P1;durP1;ratioP1;P2;durP2;ratioP2
63534;SDS011;55128;50.230;18.944;2022-08-19T00:03:08;11.68;;;10.48;;
63534;SDS011;55128;50.230;18.944;2022-08-19T00:08:09;12.27;;;11.15;;
63534;SDS011;55128;50.230;18.944;2022-08-19T00:13:09;11.75;;;10.65;;
63534;SDS011;55128;50.230;18.944;2022-08-19T00:18:10;12.63;;;10.88;;
63534;SDS011;55128;50.230;18.944;2022-08-19T00:23:11;14.00;;;11.35;;
63534;SDS011;55128;50.230;18.944;2022-08-19T00:28:13;12.50;;;11.35;;
63534;SDS011;55128;50.230;18.944;2022-08-19T00:33:14;13.07;;;11.80;;
63534;SDS011;55128;50.230;18.944;2022-08-19T00:38:16;12.57;;;11.05;;
63534;SDS011;55128;50.230;18.944;2022-08-19T00:43:21;12.30;;;11.18;;
63534;SDS011;55128;50.230;18.944;2022-08-19T00:48:24;13.52;;;11.68;;
63534;SDS011;55128;50.230;18.944;2022-08-19T00:53:26;13.75;;;12.30;;
63534;SDS011;55128;50.230;18.944;2022-08-19T00:58:30;12.70;;;11.48;;
63534;SDS011;55128;50.230;18.944;2022-08-19T01:03:33;13.35;;;11.30;;
63534;SDS011;55128;50.230;18.944;2022-08-19T01:08:34;13.88;;;12.40;;
63534;SDS011;55128;50.230;18.944;2022-08-19T01:13:35;13.93;;;12.63;;
63534;SDS011;55128;50.230;18.944;2022-08-19T01:18:36;13.95;;;12.55;;
63534;SDS011;55128;50.230;18.944;2022-08-19T01:23:41;14.27;;;12.77;;
63534;SDS011;55128;50.230;18.944;2022-08-19T01:28:46;15.95;;;12.35;;
63534;SDS011;55128;50.230;18.944;2022-08-19T01:33:49;13.48;;;12.13;;
63534;SDS011;55128;50.230;18.944;2022-08-19T01:38:51;14.83;;;13.23;;
63534;SDS011;55128;50.230;18.944;2022-08-19T01:43:52;14.43;;;12.93;;
63534;SDS011;55128;50.230;18.944;2022-08-19T01:48:53;14.02;;;12.52;;
63534;SDS011;55128;50.230;18.944;2022-08-19T01:53:54;14.23;;;12.82;;
63534;SDS011;55128;50.230;18.944;2022-08-19T01:59:00;14.10;;;12.55;;
63534;SDS011;55128;50.230;18.944;2022-08-19T02:04:03;14.38;;;13.07;;
63534;SDS011;55128;50.230;18.944;2022-08-19T02:09:05;15.25;;;13.65;;
63534;SDS011;55128;50.230;18.944;2022-08-19T02:14:08;13.95;;;12.75;;
63534;SDS011;55128;50.230;18.944;2022-08-19T02:19:09;15.23;;;13.80;;
63534;SDS011;55128;50.230;18.944;2022-08-19T02:24:10;15.40;;;13.82;;
63534;SDS011;55128;50.230;18.944;2022-08-19T02:29:12;14.02;;;12.63;;
63534;SDS011;55128;50.230;18.944;2022-08-19T02:34:12;15.02;;;13.73;;
63534;SDS011;55128;50.230;18.944;2022-08-19T02:39:13;14.18;;;12.88;;
63534;SDS011;55128;50.230;18.944;2022-08-19T02:44:13;14.10;;;12.70;;
63534;SDS011;55128;50.230;18.944;2022-08-19T02:49:14;14.90;;;13.38;;
63534;SDS011;55128;50.230;18.944;2022-08-19T02:54:18;15.27;;;13.60;;
63534;SDS011;55128;50.230;18.944;2022-08-19T02:59:19;15.15;;;13.70;;
63534;SDS011;55128;50.230;18.944;2022-08-19T03:04:20;15.40;;;13.85;;
63534;SDS011;55128;50.230;18.944;2022-08-19T03:09:20;15.52;;;13.93;;
63534;SDS011;55128;50.230;18.944;2022-08-19T03:14:21;16.17;;;14.55;;
63534;SDS011;55128;50.230;18.944;2022-08-19T03:19:23;16.52;;;13.82;;
63534;SDS011;55128;50.230;18.944;2022-08-19T03:24:23;16.63;;;14.45;;
63534;SDS011;55128;50.230;18.944;2022-08-19T03:29:25;16.35;;;14.85;;
63534;SDS011;55128;50.230;18.944;2022-08-19T03:34:29;17.02;;;15.38;;
63534;SDS011;55128;50.230;18.944;2022-08-19T03:39:31;16.45;;;14.80;;
63534;SDS011;55128;50.230;18.944;2022-08-19T03:44:32;15.48;;;13.85;;
63534;SDS011;55128;50.230;18.944;2022-08-19T03:49:33;16.60;;;14.93;;
63534;SDS011;55128;50.230;18.944;2022-08-19T03:54:35;15.50;;;13.70;;
63534;SDS011;55128;50.230;18.944;2022-08-19T03:59:37;16.43;;;14.83;;
63534;SDS011;55128;50.230;18.944;2022-08-19T04:04:39;16.70;;;14.77;;
63534;SDS011;55128;50.230;18.944;2022-08-19T04:09:43;16.85;;;15.20;;
63534;SDS011;55128;50.230;18.944;2022-08-19T04:14:44;15.23;;;13.65;;
63534;SDS011;55128;50.230;18.944;2022-08-19T04:19:45;16.83;;;15.10;;
63534;SDS011;55128;50.230;18.944;2022-08-19T04:24:45;15.95;;;14.55;;
63534;SDS011;55128;50.230;18.944;2022-08-19T04:29:46;14.85;;;13.35;;
63534;SDS011;55128;50.230;18.944;2022-08-19T04:34:47;15.55;;;14.00;;
63534;SDS011;55128;50.230;18.944;2022-08-19T04:39:48;15.63;;;14.10;;
63534;SDS011;55128;50.230;18.944;2022-08-19T04:45:08;16.90;;;14.13;;
63534;SDS011;55128;50.230;18.944;2022-08-19T04:50:14;16.58;;;14.90;;
63534;SDS011;55128;50.230;18.944;2022-08-19T04:55:15;14.98;;;13.57;;
63534;SDS011;55128;50.230;18.944;2022-08-19T05:00:15;16.13;;;13.80;;
63534;SDS011;55128;50.230;18.944;2022-08-19T05:05:16;14.98;;;13.57;;
63534;SDS011;55128;50.230;18.944;2022-08-19T05:10:17;15.32;;;13.68;;
63534;SDS011;55128;50.230;18.944;2022-08-19T05:15:18;14.18;;;12.77;;
63534;SDS011;55128;50.230;18.944;2022-08-19T05:20:19;13.25;;;11.70;;
63534;SDS011;55128;50.230;18.944;2022-08-19T05:25:39;13.00;;;11.70;;
63534;SDS011;55128;50.230;18.944;2022-08-19T05:30:39;13.00;;;11.60;;
63534;SDS011;55128;50.230;18.944;2022-08-19T05:35:40;11.88;;;10.77;;
63534;SDS011;55128;50.230;18.944;2022-08-19T05:40:41;12.40;;;11.10;;
63534;SDS011;55128;50.230;18.944;2022-08-19T05:45:49;12.65;;;11.35;;
63534;SDS011;55128;50.230;18.944;2022-08-19T05:50:50;12.52;;;10.90;;
63534;SDS011;55128;50.230;18.944;2022-08-19T05:55:51;12.45;;;10.52;;
63534;SDS011;55128;50.230;18.944;2022-08-19T06:00:51;11.52;;;10.43;;
63534;SDS011;55128;50.230;18.944;2022-08-19T06:05:54;12.05;;;10.95;;
63534;SDS011;55128;50.230;18.944;2022-08-19T06:10:55;11.57;;;10.05;;
63534;SDS011;55128;50.230;18.944;2022-08-19T06:15:56;16.48;;;11.07;;
63534;SDS011;55128;50.230;18.944;2022-08-19T06:20:56;11.13;;;10.05;;
63534;SDS011;55128;50.230;18.944;2022-08-19T06:25:57;10.70;;;9.70;;
63534;SDS011;55128;50.230;18.944;2022-08-19T06:30:57;12.13;;;10.07;;
63534;SDS011;55128;50.230;18.944;2022-08-19T06:35:58;11.05;;;9.98;;
63534;SDS011;55128;50.230;18.944;2022-08-19T06:41:02;11.25;;;10.18;;
63534;SDS011;55128;50.230;18.944;2022-08-19T06:46:09;11.73;;;10.60;;
63534;SDS011;55128;50.230;18.944;2022-08-19T06:51:13;11.27;;;10.13;;
63534;SDS011;55128;50.230;18.944;2022-08-19T06:56:16;12.60;;;9.98;;
63534;SDS011;55128;50.230;18.944;2022-08-19T07:01:21;11.57;;;10.23;;
63534;SDS011;55128;50.230;18.944;2022-08-19T07:06:21;11.10;;;9.52;;
63534;SDS011;55128;50.230;18.944;2022-08-19T07:11:22;11.50;;;10.30;;
63534;SDS011;55128;50.230;18.944;2022-08-19T07:16:23;10.98;;;9.70;;
63534;SDS011;55128;50.230;18.944;2022-08-19T07:21:27;11.80;;;10.40;;
63534;SDS011;55128;50.230;18.944;2022-08-19T07:26:30;11.73;;;10.38;;
63534;SDS011;55128;50.230;18.944;2022-08-19T07:31:33;13.57;;;10.00;;
63534;SDS011;55128;50.230;18.944;2022-08-19T07:36:38;11.68;;;10.48;;
63534;SDS011;55128;50.230;18.944;2022-08-19T07:41:40;12.90;;;11.32;;
63534;SDS011;55128;50.230;18.944;2022-08-19T07:46:43;11.90;;;10.77;;
63534;SDS011;55128;50.230;18.944;2022-08-19T07:51:48;14.00;;;10.30;;
63534;SDS011;55128;50.230;18.944;2022-08-19T07:56:54;12.25;;;11.02;;
63534;SDS011;55128;50.230;18.944;2022-08-19T08:01:57;12.02;;;10.85;;
63534;SDS011;55128;50.230;18.944;2022-08-19T08:07:00;11.38;;;10.27;;
63534;SDS011;55128;50.230;18.944;2022-08-19T08:12:21;14.88;;;10.90;;
63534;SDS011;55128;50.230;18.944;2022-08-19T08:17:29;11.35;;;10.25;;
63534;SDS011;55128;50.230;18.944;2022-08-19T08:22:30;12.40;;;9.98;;
63534;SDS011;55128;50.230;18.944;2022-08-19T08:27:50;11.00;;;9.90;;
63534;SDS011;55128;50.230;18.944;2022-08-19T08:32:51;11.88;;;10.60;;
63534;SDS011;55128;50.230;18.944;2022-08-19T08:37:53;11.90;;;10.80;;
63534;SDS011;55128;50.230;18.944;2022-08-19T08:43:38;12.32;;;10.65;;
63534;SDS011;55128;50.230;18.944;2022-08-19T08:53:43;10.57;;;9.55;;
63534;SDS011;55128;50.230;18.944;2022-08-19T08:58:58;10.95;;;9.30;;
63534;SDS011;55128;50.230;18.944;2022-08-19T09:04:07;16.85;;;14.23;;
63534;SDS011;55128;50.230;18.944;2022-08-19T09:19:51;12.80;;;9.95;;
63534;SDS011;55128;50.230;18.944;2022-08-19T09:24:57;13.00;;;9.95;;
63534;SDS011;55128;50.230;18.944;2022-08-19T09:29:58;10.90;;;9.70;;
63534;SDS011;55128;50.230;18.944;2022-08-19T09:34:59;11.90;;;8.30;;
63534;SDS011;55128;50.230;18.944;2022-08-19T09:40:01;10.00;;;8.88;;
63534;SDS011;55128;50.230;18.944;2022-08-19T09:45:03;11.68;;;8.50;;
63534;SDS011;55128;50.230;18.944;2022-08-19T09:50:05;9.38;;;8.10;;
63534;SDS011;55128;50.230;18.944;2022-08-19T09:55:08;9.50;;;8.60;;
63534;SDS011;55128;50.230;18.944;2022-08-19T10:00:11;9.35;;;7.70;;
63534;SDS011;55128;50.230;18.944;2022-08-19T10:05:25;9.73;;;7.55;;
63534;SDS011;55128;50.230;18.944;2022-08-19T10:10:44;9.52;;;8.18;;
63534;SDS011;55128;50.230;18.944;2022-08-19T10:15:45;9.90;;;7.53;;
63534;SDS011;55128;50.230;18.944;2022-08-19T10:20:51;11.55;;;6.90;;
63534;SDS011;55128;50.230;18.944;2022-08-19T10:25:54;7.88;;;6.60;;
63534;SDS011;55128;50.230;18.944;2022-08-19T10:31:03;9.07;;;7.00;;
63534;SDS011;55128;50.230;18.944;2022-08-19T10:36:15;8.98;;;7.00;;
63534;SDS011;55128;50.230;18.944;2022-08-19T10:41:23;9.45;;;6.65;;
63534;SDS011;55128;50.230;18.944;2022-08-19T10:46:27;10.18;;;7.28;;
63534;SDS011;55128;50.230;18.944;2022-08-19T10:51:29;10.02;;;7.07;;
63534;SDS011;55128;50.230;18.944;2022-08-19T10:56:48;10.43;;;7.22;;
63534;SDS011;55128;50.230;18.944;2022-08-19T11:01:52;7.38;;;6.60;;
63534;SDS011;55128;50.230;18.944;2022-08-19T11:06:53;10.13;;;6.50;;
63534;SDS011;55128;50.230;18.944;2022-08-19T11:11:53;8.67;;;6.63;;
63534;SDS011;55128;50.230;18.944;2022-08-19T11:16:54;10.50;;;6.07;;
63534;SDS011;55128;50.230;18.944;2022-08-19T11:21:58;8.18;;;6.07;;
63534;SDS011;55128;50.230;18.944;2022-08-19T11:27:03;8.07;;;6.00;;
63534;SDS011;55128;50.230;18.944;2022-08-19T11:32:09;7.80;;;6.10;;
63534;SDS011;55128;50.230;18.944;2022-08-19T11:37:10;8.15;;;5.93;;
63534;SDS011;55128;50.230;18.944;2022-08-19T11:42:11;7.13;;;6.07;;
63534;SDS011;55128;50.230;18.944;2022-08-19T11:47:33;9.95;;;5.82;;
63534;SDS011;55128;50.230;18.944;2022-08-19T11:52:34;8.57;;;6.27;;
63534;SDS011;55128;50.230;18.944;2022-08-19T11:57:35;7.03;;;6.20;;
63534;SDS011;55128;50.230;18.944;2022-08-19T12:02:43;6.97;;;5.93;;
63534;SDS011;55128;50.230;18.944;2022-08-19T12:07:44;9.90;;;6.03;;
63534;SDS011;55128;50.230;18.944;2022-08-19T12:12:46;9.38;;;6.00;;
63534;SDS011;55128;50.230;18.944;2022-08-19T12:17:46;7.77;;;6.20;;
63534;SDS011;55128;50.230;18.944;2022-08-19T12:22:47;7.70;;;5.80;;
63534;SDS011;55128;50.230;18.944;2022-08-19T12:27:48;8.17;;;6.17;;
63534;SDS011;55128;50.230;18.944;2022-08-19T12:32:51;8.50;;;5.80;;
63534;SDS011;55128;50.230;18.944;2022-08-19T12:37:52;6.80;;;5.90;;
63534;SDS011;55128;50.230;18.944;2022-08-19T12:42:53;6.83;;;5.57;;
63534;SDS011;55128;50.230;18.944;2022-08-19T12:47:57;9.50;;;5.72;;
63534;SDS011;55128;50.230;18.944;2022-08-19T12:52:58;9.48;;;5.43;;
63534;SDS011;55128;50.230;18.944;2022-08-19T12:58:03;9.55;;;5.13;;
63534;SDS011;55128;50.230;18.944;2022-08-19T13:03:17;13.05;;;5.65;;
63534;SDS011;55128;50.230;18.944;2022-08-19T13:08:19;10.07;;;5.53;;
63534;SDS011;55128;50.230;18.944;2022-08-19T13:13:20;7.97;;;5.32;;
63534;SDS011;55128;50.230;18.944;2022-08-19T13:18:21;8.13;;;5.23;;
63534;SDS011;55128;50.230;18.944;2022-08-19T13:23:22;9.20;;;5.77;;
63534;SDS011;55128;50.230;18.944;2022-08-19T13:28:23;14.73;;;6.35;;
63534;SDS011;55128;50.230;18.944;2022-08-19T13:33:24;8.17;;;5.70;;
63534;SDS011;55128;50.230;18.944;2022-08-19T13:38:27;8.68;;;6.28;;
63534;SDS011;55128;50.230;18.944;2022-08-19T13:43:28;11.02;;;6.00;;
63534;SDS011;55128;50.230;18.944;2022-08-19T13:48:29;7.63;;;5.27;;
63534;SDS011;55128;50.230;18.944;2022-08-19T13:53:30;11.55;;;5.80;;
63534;SDS011;55128;50.230;18.944;2022-08-19T13:58:30;7.20;;;6.07;;
63534;SDS011;55128;50.230;18.944;2022-08-19T14:03:32;11.80;;;6.20;;
63534;SDS011;55128;50.230;18.944;2022-08-19T14:13:34;7.53;;;5.87;;
63534;SDS011;55128;50.230;18.944;2022-08-19T14:18:34;11.37;;;6.03;;
63534;SDS011;55128;50.230;18.944;2022-08-19T14:23:36;10.70;;;5.90;;
63534;SDS011;55128;50.230;18.944;2022-08-19T14:28:37;11.00;;;5.72;;
63534;SDS011;55128;50.230;18.944;2022-08-19T14:33:40;9.43;;;5.93;;
63534;SDS011;55128;50.230;18.944;2022-08-19T14:38:42;7.30;;;4.93;;
63534;SDS011;55128;50.230;18.944;2022-08-19T14:43:43;9.43;;;5.53;;
63534;SDS011;55128;50.230;18.944;2022-08-19T14:48:46;7.50;;;5.03;;
63534;SDS011;55128;50.230;18.944;2022-08-19T14:53:49;10.98;;;5.65;;
63534;SDS011;55128;50.230;18.944;2022-08-19T14:58:50;12.70;;;5.67;;
63534;SDS011;55128;50.230;18.944;2022-08-19T15:03:52;10.80;;;5.80;;
63534;SDS011;55128;50.230;18.944;2022-08-19T15:08:53;11.07;;;5.72;;
63534;SDS011;55128;50.230;18.944;2022-08-19T15:13:55;9.65;;;5.70;;
63534;SDS011;55128;50.230;18.944;2022-08-19T15:18:57;11.05;;;5.78;;
63534;SDS011;55128;50.230;18.944;2022-08-19T15:23:59;12.23;;;5.90;;
63534;SDS011;55128;50.230;18.944;2022-08-19T15:29:01;9.60;;;6.20;;
63534;SDS011;55128;50.230;18.944;2022-08-19T15:34:03;10.48;;;6.15;;
63534;SDS011;55128;50.230;18.944;2022-08-19T15:39:05;10.80;;;6.93;;
63534;SDS011;55128;50.230;18.944;2022-08-19T15:44:09;11.30;;;6.43;;
63534;SDS011;55128;50.230;18.944;2022-08-19T15:49:14;9.40;;;6.68;;
63534;SDS011;55128;50.230;18.944;2022-08-19T15:54:17;13.48;;;7.68;;
63534;SDS011;55128;50.230;18.944;2022-08-19T15:59:20;10.95;;;8.30;;
63534;SDS011;55128;50.230;18.944;2022-08-19T16:04:39;12.25;;;7.03;;
63534;SDS011;55128;50.230;18.944;2022-08-19T16:09:58;10.95;;;6.60;;
63534;SDS011;55128;50.230;18.944;2022-08-19T16:14:59;11.70;;;6.97;;
63534;SDS011;55128;50.230;18.944;2022-08-19T16:20:00;10.82;;;6.50;;
63534;SDS011;55128;50.230;18.944;2022-08-19T16:25:02;10.77;;;7.43;;
63534;SDS011;55128;50.230;18.944;2022-08-19T16:30:03;12.98;;;7.20;;
63534;SDS011;55128;50.230;18.944;2022-08-19T16:35:06;12.10;;;7.32;;
63534;SDS011;55128;50.230;18.944;2022-08-19T16:40:27;11.45;;;7.57;;
63534;SDS011;55128;50.230;18.944;2022-08-19T16:45:44;9.98;;;6.72;;
63534;SDS011;55128;50.230;18.944;2022-08-19T16:50:45;11.30;;;7.72;;
63534;SDS011;55128;50.230;18.944;2022-08-19T16:55:47;12.80;;;7.22;;
63534;SDS011;55128;50.230;18.944;2022-08-19T17:00:52;11.23;;;7.80;;
63534;SDS011;55128;50.230;18.944;2022-08-19T17:05:55;11.00;;;8.02;;
63534;SDS011;55128;50.230;18.944;2022-08-19T17:10:58;11.50;;;7.55;;
63534;SDS011;55128;50.230;18.944;2022-08-19T17:15:59;9.60;;;7.47;;
63534;SDS011;55128;50.230;18.944;2022-08-19T17:21:00;11.23;;;7.63;;
63534;SDS011;55128;50.230;18.944;2022-08-19T17:26:07;14.23;;;9.20;;
63534;SDS011;55128;50.230;18.944;2022-08-19T17:31:29;13.93;;;8.85;;
63534;SDS011;55128;50.230;18.944;2022-08-19T17:36:31;13.60;;;7.72;;
63534;SDS011;55128;50.230;18.944;2022-08-19T17:41:34;15.55;;;7.72;;
63534;SDS011;55128;50.230;18.944;2022-08-19T17:46:34;13.82;;;7.70;;
63534;SDS011;55128;50.230;18.944;2022-08-19T17:56:39;12.60;;;6.88;;
63534;SDS011;55128;50.230;18.944;2022-08-19T18:01:41;12.30;;;6.65;;
63534;SDS011;55128;50.230;18.944;2022-08-19T18:06:43;10.25;;;6.40;;
63534;SDS011;55128;50.230;18.944;2022-08-19T18:11:43;10.45;;;5.70;;
63534;SDS011;55128;50.230;18.944;2022-08-19T18:16:44;12.73;;;5.85;;
63534;SDS011;55128;50.230;18.944;2022-08-19T18:21:45;7.80;;;4.57;;
63534;SDS011;55128;50.230;18.944;2022-08-19T18:26:46;8.15;;;4.93;;
63534;SDS011;55128;50.230;18.944;2022-08-19T18:31:47;8.98;;;4.70;;
63534;SDS011;55128;50.230;18.944;2022-08-19T18:36:47;13.00;;;4.60;;
63534;SDS011;55128;50.230;18.944;2022-08-19T18:41:48;11.02;;;4.90;;
63534;SDS011;55128;50.230;18.944;2022-08-19T18:47:07;10.25;;;5.25;;
63534;SDS011;55128;50.230;18.944;2022-08-19T18:52:26;11.35;;;5.20;;
63534;SDS011;55128;50.230;18.944;2022-08-19T18:57:26;8.70;;;4.57;;
63534;SDS011;55128;50.230;18.944;2022-08-19T19:02:27;7.53;;;5.35;;
63534;SDS011;55128;50.230;18.944;2022-08-19T19:07:27;9.48;;;5.35;;
63534;SDS011;55128;50.230;18.944;2022-08-19T19:12:28;10.55;;;6.47;;
63534;SDS011;55128;50.230;18.944;2022-08-19T19:17:29;10.15;;;6.85;;
63534;SDS011;55128;50.230;18.944;2022-08-19T19:22:29;14.20;;;6.53;;
63534;SDS011;55128;50.230;18.944;2022-08-19T19:27:30;12.30;;;6.75;;
63534;SDS011;55128;50.230;18.944;2022-08-19T19:32:31;12.55;;;6.60;;
63534;SDS011;55128;50.230;18.944;2022-08-19T19:37:36;12.68;;;6.32;;
63534;SDS011;55128;50.230;18.944;2022-08-19T19:42:37;9.27;;;6.25;;
63534;SDS011;55128;50.230;18.944;2022-08-19T19:47:38;7.53;;;5.97;;
63534;SDS011;55128;50.230;18.944;2022-08-19T19:52:39;10.93;;;6.65;;
63534;SDS011;55128;50.230;18.944;2022-08-19T19:57:40;11.18;;;6.28;;
63534;SDS011;55128;50.230;18.944;2022-08-19T20:02:41;12.70;;;9.52;;
63534;SDS011;55128;50.230;18.944;2022-08-19T20:07:44;10.55;;;6.60;;
63534;SDS011;55128;50.230;18.944;2022-08-19T20:13:03;11.00;;;7.50;;
63534;SDS011;55128;50.230;18.944;2022-08-19T20:18:05;9.93;;;7.30;;
63534;SDS011;55128;50.230;18.944;2022-08-19T20:23:06;9.95;;;7.13;;
63534;SDS011;55128;50.230;18.944;2022-08-19T20:28:07;8.43;;;6.10;;
63534;SDS011;55128;50.230;18.944;2022-08-19T20:33:08;9.85;;;7.63;;
63534;SDS011;55128;50.230;18.944;2022-08-19T20:38:08;8.82;;;7.00;;
63534;SDS011;55128;50.230;18.944;2022-08-19T20:43:10;11.25;;;7.65;;
63534;SDS011;55128;50.230;18.944;2022-08-19T20:48:12;9.97;;;7.83;;
63534;SDS011;55128;50.230;18.944;2022-08-19T20:53:14;12.13;;;8.57;;
63534;SDS011;55128;50.230;18.944;2022-08-19T20:58:18;14.43;;;9.18;;
63534;SDS011;55128;50.230;18.944;2022-08-19T21:03:21;11.75;;;8.32;;
63534;SDS011;55128;50.230;18.944;2022-08-19T21:08:25;17.10;;;8.32;;
63534;SDS011;55128;50.230;18.944;2022-08-19T21:13:26;13.43;;;8.30;;
63534;SDS011;55128;50.230;18.944;2022-08-19T21:18:27;11.85;;;9.23;;
63534;SDS011;55128;50.230;18.944;2022-08-19T21:23:28;12.98;;;8.68;;
63534;SDS011;55128;50.230;18.944;2022-08-19T21:28:30;13.48;;;8.38;;
63534;SDS011;55128;50.230;18.944;2022-08-19T21:33:31;14.27;;;8.00;;
63534;SDS011;55128;50.230;18.944;2022-08-19T21:38:31;10.43;;;7.93;;
63534;SDS011;55128;50.230;18.944;2022-08-19T21:43:33;12.70;;;8.25;;
63534;SDS011;55128;50.230;18.944;2022-08-19T21:48:36;12.05;;;8.57;;
63534;SDS011;55128;50.230;18.944;2022-08-19T21:53:36;13.15;;;9.00;;
63534;SDS011;55128;50.230;18.944;2022-08-19T21:58:37;12.73;;;8.82;;
63534;SDS011;55128;50.230;18.944;2022-08-19T22:03:38;16.33;;;9.68;;
63534;SDS011;55128;50.230;18.944;2022-08-19T22:08:39;12.25;;;9.63;;
63534;SDS011;55128;50.230;18.944;2022-08-19T22:13:41;12.85;;;9.85;;
63534;SDS011;55128;50.230;18.944;2022-08-19T22:18:41;13.80;;;10.25;;
63534;SDS011;55128;50.230;18.944;2022-08-19T22:23:43;12.95;;;9.70;;
63534;SDS011;55128;50.230;18.944;2022-08-19T22:28:44;12.40;;;10.60;;
63534;SDS011;55128;50.230;18.944;2022-08-19T22:33:44;13.38;;;10.48;;
63534;SDS011;55128;50.230;18.944;2022-08-19T22:38:45;14.82;;;10.55;;
63534;SDS011;55128;50.230;18.944;2022-08-19T22:43:45;12.27;;;10.80;;
63534;SDS011;55128;50.230;18.944;2022-08-19T22:48:47;14.02;;;10.43;;
63534;SDS011;55128;50.230;18.944;2022-08-19T22:53:48;13.13;;;11.10;;
63534;SDS011;55128;50.230;18.944;2022-08-19T22:58:48;14.23;;;12.73;;
63534;SDS011;55128;50.230;18.944;2022-08-19T23:03:49;15.27;;;13.55;;
63534;SDS011;55128;50.230;18.944;2022-08-19T23:08:50;16.23;;;14.52;;
63534;SDS011;55128;50.230;18.944;2022-08-19T23:13:50;18.70;;;16.70;;
63534;SDS011;55128;50.230;18.944;2022-08-19T23:18:51;16.35;;;14.65;;
63534;SDS011;55128;50.230;18.944;2022-08-19T23:23:52;18.13;;;14.30;;
63534;SDS011;55128;50.230;18.944;2022-08-19T23:28:53;16.08;;;14.25;;
63534;SDS011;55128;50.230;18.944;2022-08-19T23:34:12;15.10;;;13.45;;
63534;SDS011;55128;50.230;18.944;2022-08-19T23:39:12;16.25;;;12.63;;
63534;SDS011;55128;50.230;18.944;2022-08-19T23:44:13;15.00;;;13.25;;
63534;SDS011;55128;50.230;18.944;2022-08-19T23:49:13;18.05;;;13.75;;
63534;SDS011;55128;50.230;18.944;2022-08-19T23:54:14;15.27;;;13.07;;
63534;SDS011;55128;50.230;18.944;2022-08-19T23:59:15;16.23;;;13.00;;
